KNQA

Millington Regional Jetport Airport

Millington, Tennessee, USA
METAR KNQA 231450Z 01003KT 10SM BKN250 26/22 A3011
Observed Flight Rules
May-23 @ 14:50 UTC (21 minutes ago) Visual Flight Rules
Wind Visibility Clouds
10° at 3 knots 10 miles
  • Broken at 25,000' AGL
Temperatures Readings
Current 26°C / 79°F
Dewpoint 22°C / 72°F
Humidity 79%
Altimeter 30.11" Hg
Pressure 1020 hPa
Elevation 86
METAR KNQA 231450Z 01003KT 10SM BKN250 26/22 A3011
Observed Flight Rules
May-23 @ 14:50 UTC
(21 minutes ago)
VFR
Wind Visibility
10° at 3 knots 10 miles
Clouds
  • Broken at 25,000' AGL
Temperature Dewpoint
26°C / 79°F 22°C / 72°F
Humidity Altimeter Pressure
79% 30.11" Hg 1020 hPa